createdAt,value
2022-09-14T00:00:34.885Z,13.90
2022-09-14T00:01:39.775Z,8.60
2022-09-14T00:02:42.410Z,11.60
2022-09-14T00:03:44.708Z,10.80
2022-09-14T00:04:46.784Z,8.20
2022-09-14T00:05:48.753Z,8.22
2022-09-14T00:06:50.945Z,8.00
2022-09-14T00:07:52.897Z,8.00
2022-09-14T00:08:57.132Z,11.33
2022-09-14T00:09:59.600Z,10.20
2022-09-14T00:11:07.839Z,9.80
2022-09-14T00:12:10.366Z,10.10
2022-09-14T00:13:14.866Z,9.00
2022-09-14T00:14:18.201Z,8.90
2022-09-14T00:15:20.234Z,8.90
2022-09-14T00:16:27.665Z,12.50
2022-09-14T00:17:29.729Z,9.70
2022-09-14T00:18:33.453Z,11.89
2022-09-14T00:19:35.810Z,8.90
2022-09-14T00:20:38.430Z,10.50
2022-09-14T00:21:40.727Z,7.40
2022-09-14T00:22:43.098Z,10.50
2022-09-14T00:23:45.356Z,7.00
2022-09-14T00:24:47.742Z,7.80
2022-09-14T00:25:49.672Z,6.00
2022-09-14T00:26:53.151Z,9.30
2022-09-14T00:27:57.165Z,7.10
2022-09-14T00:29:00.116Z,9.90
2022-09-14T00:30:03.012Z,10.60
2022-09-14T00:31:06.300Z,8.82
2022-09-14T00:32:08.605Z,8.80
2022-09-14T00:33:10.600Z,9.30
2022-09-14T00:34:14.267Z,8.00
2022-09-14T00:35:17.167Z,8.50
2022-09-14T00:36:25.782Z,7.30
2022-09-14T00:37:28.285Z,6.50
2022-09-14T00:38:30.293Z,9.30
2022-09-14T00:39:32.196Z,8.70
2022-09-14T00:40:37.092Z,8.20
2022-09-14T00:41:42.552Z,9.60
2022-09-14T00:42:45.120Z,6.80
2022-09-14T00:44:04.747Z,7.40
2022-09-14T00:45:16.628Z,10.70
2022-09-14T00:46:20.049Z,9.60
2022-09-14T00:47:22.564Z,11.80
2022-09-14T00:48:25.650Z,8.50
2022-09-14T00:49:34.037Z,7.60
2022-09-14T00:50:36.522Z,6.40
2022-09-14T00:51:42.375Z,9.50
2022-09-14T00:52:47.952Z,8.70
2022-09-14T00:53:52.534Z,5.20
2022-09-14T00:54:58.942Z,8.50
2022-09-14T00:56:02.196Z,6.30
2022-09-14T00:57:05.337Z,7.70
2022-09-14T00:58:07.586Z,6.00
2022-09-14T00:59:13.121Z,8.90
2022-09-14T01:00:19.677Z,6.80
2022-09-14T01:01:21.991Z,11.80
2022-09-14T01:02:26.512Z,7.40
2022-09-14T01:03:28.830Z,7.80
2022-09-14T01:04:31.877Z,9.70
2022-09-14T01:05:55.426Z,6.90
2022-09-14T01:07:22.881Z,4.90
2022-09-14T01:08:44.275Z,5.80
2022-09-14T01:10:05.471Z,6.90
2022-09-14T01:11:13.806Z,8.60
2022-09-14T01:12:23.302Z,15.10
2022-09-14T01:13:45.109Z,17.00
2022-09-14T01:15:15.622Z,12.60
2022-09-14T01:16:29.209Z,17.30
2022-09-14T01:17:51.525Z,11.80
2022-09-14T01:19:00.082Z,13.00
2022-09-14T01:20:21.567Z,11.20
2022-09-14T01:21:32.881Z,11.30
2022-09-14T01:22:50.721Z,12.50
2022-09-14T01:23:56.735Z,12.30
2022-09-14T01:25:30.546Z,10.80
2022-09-14T01:26:45.840Z,6.20
2022-09-14T01:27:50.333Z,8.80
2022-09-14T01:29:26.342Z,10.00
2022-09-14T01:30:32.029Z,9.30
2022-09-14T01:31:54.430Z,11.50
2022-09-14T01:33:24.414Z,4.80
2022-09-14T01:34:30.028Z,7.90
2022-09-14T01:35:44.205Z,7.40
2022-09-14T01:36:49.902Z,9.50
2022-09-14T01:37:55.460Z,8.60
2022-09-14T01:39:00.506Z,10.60
2022-09-14T01:40:24.274Z,10.00
2022-09-14T01:41:28.718Z,8.80
2022-09-14T01:42:33.759Z,8.30
2022-09-14T01:43:51.479Z,8.70
2022-09-14T01:45:00.111Z,7.40
2022-09-14T01:46:12.514Z,10.20
2022-09-14T01:47:24.151Z,10.10
2022-09-14T01:48:35.899Z,8.70
2022-09-14T01:49:51.151Z,6.70
2022-09-14T01:50:56.764Z,9.40
2022-09-14T01:52:13.225Z,7.60
2022-09-14T01:53:21.771Z,8.00
2022-09-14T01:54:36.691Z,9.80
2022-09-14T01:55:48.540Z,11.20
2022-09-14T01:56:57.170Z,13.30
2022-09-14T01:58:05.757Z,11.20
2022-09-14T01:59:20.644Z,12.20
2022-09-14T02:00:24.427Z,11.20
2022-09-14T02:01:36.001Z,10.00
2022-09-14T02:02:41.877Z,12.70
2022-09-14T02:03:47.897Z,15.00
2022-09-14T02:05:18.312Z,13.60
2022-09-14T02:06:24.891Z,10.50
2022-09-14T02:07:26.963Z,14.30
2022-09-14T02:08:30.332Z,11.80
2022-09-14T02:09:33.278Z,11.20
2022-09-14T02:10:35.788Z,14.80
2022-09-14T02:11:38.427Z,12.40
2022-09-14T02:12:40.819Z,14.60
2022-09-14T02:13:43.031Z,9.40
2022-09-14T02:14:46.441Z,12.40
2022-09-14T02:15:48.602Z,12.00
2022-09-14T02:16:51.156Z,5.60
2022-09-14T02:17:53.912Z,9.30
2022-09-14T02:18:56.196Z,8.00
2022-09-14T02:20:04.587Z,11.80
2022-09-14T02:21:10.432Z,12.20
2022-09-14T02:22:12.968Z,10.80
2022-09-14T02:23:16.564Z,12.40
2022-09-14T02:24:18.798Z,12.20
2022-09-14T02:25:20.714Z,10.10
2022-09-14T02:26:23.919Z,11.50
2022-09-14T02:27:25.911Z,11.30
2022-09-14T02:28:28.178Z,8.20
2022-09-14T02:29:31.003Z,9.00
2022-09-14T02:30:42.833Z,12.60
2022-09-14T02:32:03.849Z,10.10
2022-09-14T02:33:27.890Z,11.00
2022-09-14T02:34:50.389Z,10.90
2022-09-14T02:35:55.093Z,10.80
2022-09-14T02:37:20.836Z,10.90
2022-09-14T02:38:32.348Z,11.20
2022-09-14T02:39:47.080Z,10.70
2022-09-14T02:40:52.904Z,14.50
2022-09-14T02:42:01.290Z,13.00
2022-09-14T02:43:13.004Z,12.30
2022-09-14T02:44:42.554Z,11.90
2022-09-14T02:45:54.335Z,11.50
2022-09-14T02:47:11.895Z,10.10
2022-09-14T02:48:23.605Z,10.40
2022-09-14T02:49:37.750Z,11.60
2022-09-14T02:50:58.828Z,11.80
2022-09-14T02:52:04.476Z,11.10
2022-09-14T02:53:18.847Z,13.70
2022-09-14T02:54:39.392Z,12.30
2022-09-14T02:56:54.620Z,9.90
2022-09-14T02:58:02.590Z,12.40
2022-09-14T02:59:05.136Z,11.50
2022-09-14T03:00:08.804Z,11.10
2022-09-14T03:01:14.599Z,11.82
2022-09-14T03:02:16.959Z,10.90
2022-09-14T03:03:20.958Z,12.30
2022-09-14T03:04:22.935Z,9.00
2022-09-14T03:05:25.223Z,5.70
2022-09-14T03:06:27.632Z,10.50
2022-09-14T03:07:29.501Z,10.00
2022-09-14T03:08:32.706Z,8.11
2022-09-14T03:09:34.741Z,7.90
2022-09-14T03:10:37.974Z,12.20
2022-09-14T03:11:40.023Z,10.91
2022-09-14T03:12:42.056Z,11.90
2022-09-14T03:13:44.045Z,12.50
2022-09-14T03:14:46.555Z,9.90
2022-09-14T03:15:48.424Z,9.70
2022-09-14T03:16:50.550Z,12.10
2022-09-14T03:17:53.172Z,11.22
2022-09-14T03:18:55.100Z,12.70
2022-09-14T03:19:56.818Z,11.11
2022-09-14T03:21:03.945Z,11.20
2022-09-14T03:22:06.013Z,12.80
2022-09-14T03:23:08.052Z,13.11
2022-09-14T03:24:09.856Z,10.60
2022-09-14T03:25:12.562Z,10.89
2022-09-14T03:26:20.105Z,11.90
2022-09-14T03:27:22.762Z,9.90
2022-09-14T03:28:25.119Z,12.70
2022-09-14T03:29:27.410Z,13.10
2022-09-14T03:30:30.744Z,12.09
2022-09-14T03:31:33.687Z,9.82
2022-09-14T03:32:35.991Z,10.70
2022-09-14T03:33:38.614Z,10.00
2022-09-14T03:34:40.817Z,10.60
2022-09-14T03:35:42.622Z,11.00
2022-09-14T03:36:44.704Z,11.90
2022-09-14T03:37:47.070Z,9.33
2022-09-14T03:38:51.067Z,10.60
2022-09-14T03:39:53.011Z,9.90
2022-09-14T03:40:57.079Z,8.30
2022-09-14T03:41:59.377Z,10.20
2022-09-14T03:43:01.331Z,10.80
2022-09-14T03:44:03.343Z,13.22
2022-09-14T03:45:06.639Z,6.30
2022-09-14T03:46:12.458Z,12.00
2022-09-14T03:47:14.462Z,8.20
2022-09-14T03:48:16.474Z,10.50
2022-09-14T03:49:18.449Z,13.50
2022-09-14T03:50:21.051Z,8.00
2022-09-14T03:51:23.251Z,8.10
2022-09-14T03:52:25.039Z,7.10
2022-09-14T03:53:26.980Z,9.00
2022-09-14T03:54:29.409Z,10.00
2022-09-14T03:55:31.944Z,11.30
2022-09-14T03:56:35.804Z,7.90
2022-09-14T03:57:38.831Z,8.80
2022-09-14T03:58:41.216Z,9.00
2022-09-14T03:59:43.927Z,8.10
2022-09-14T04:00:46.235Z,8.82
2022-09-14T04:01:49.336Z,10.90
2022-09-14T04:02:51.702Z,10.30
2022-09-14T04:03:53.765Z,10.10
2022-09-14T04:04:55.881Z,8.56
2022-09-14T04:05:58.338Z,10.70
2022-09-14T04:07:00.421Z,6.30
2022-09-14T04:08:03.194Z,8.00
2022-09-14T04:09:05.245Z,7.00
2022-09-14T04:10:08.866Z,11.20
2022-09-14T04:11:14.462Z,8.70
2022-09-14T04:12:16.520Z,6.40
2022-09-14T04:13:18.977Z,9.90
2022-09-14T04:14:22.075Z,8.20
2022-09-14T04:15:25.477Z,8.90
2022-09-14T04:16:30.083Z,6.30
2022-09-14T04:17:32.381Z,9.10
2022-09-14T04:18:34.276Z,9.50
2022-09-14T04:19:36.084Z,8.22
2022-09-14T04:20:38.514Z,9.11
2022-09-14T04:21:40.624Z,9.50
2022-09-14T04:22:42.548Z,11.40
2022-09-14T04:24:13.479Z,10.56
2022-09-14T04:24:48.425Z,11.10
2022-09-14T04:25:50.908Z,8.70
2022-09-14T04:26:52.947Z,9.40
2022-09-14T04:28:16.872Z,9.10
2022-09-14T04:28:58.942Z,8.20
2022-09-14T04:30:00.839Z,9.20
2022-09-14T04:31:02.859Z,8.67
2022-09-14T04:32:05.468Z,8.40
2022-09-14T04:33:09.100Z,8.20
2022-09-14T04:34:13.172Z,11.10
2022-09-14T04:35:16.481Z,9.40
2022-09-14T04:36:21.890Z,8.60
2022-09-14T04:37:24.551Z,7.90
2022-09-14T04:38:27.829Z,12.20
2022-09-14T04:39:29.809Z,10.90
2022-09-14T04:40:32.092Z,7.50
2022-09-14T04:41:35.466Z,7.80
2022-09-14T04:42:37.923Z,9.82
2022-09-14T04:43:40.806Z,8.50
2022-09-14T04:44:42.783Z,10.73
2022-09-14T04:45:44.796Z,9.90
2022-09-14T04:46:47.279Z,5.10
2022-09-14T04:47:49.437Z,7.00
2022-09-14T04:48:51.491Z,9.89
2022-09-14T04:49:53.403Z,9.90
2022-09-14T04:50:59.063Z,9.50
2022-09-14T04:52:01.644Z,9.10
2022-09-14T04:53:04.180Z,8.10
2022-09-14T04:54:06.787Z,10.60
2022-09-14T04:55:09.358Z,8.50
2022-09-14T04:56:13.477Z,8.91
2022-09-14T04:57:15.479Z,10.60
2022-09-14T04:58:17.383Z,10.00
2022-09-14T04:59:19.375Z,11.44
2022-09-14T05:00:23.155Z,10.30
2022-09-14T05:01:28.224Z,5.20
2022-09-14T05:02:30.372Z,6.40
2022-09-14T05:03:32.952Z,7.70
2022-09-14T05:04:34.734Z,9.20
2022-09-14T05:05:36.482Z,6.67
2022-09-14T05:06:40.893Z,8.89
2022-09-14T05:07:42.991Z,6.60
2022-09-14T05:08:45.780Z,9.40
2022-09-14T05:09:47.637Z,8.18
2022-09-14T05:10:49.641Z,7.60
2022-09-14T05:11:51.617Z,7.67
2022-09-14T05:12:53.629Z,7.60
2022-09-14T05:13:57.536Z,9.20
2022-09-14T05:14:59.643Z,7.10
2022-09-14T05:16:11.632Z,7.20
2022-09-14T05:17:13.731Z,7.30
2022-09-14T05:18:16.376Z,7.30
2022-09-14T05:19:18.856Z,8.40
2022-09-14T05:20:22.319Z,3.70
2022-09-14T05:21:24.410Z,9.70
2022-09-14T05:22:28.287Z,6.70
2022-09-14T05:23:30.931Z,5.50
2022-09-14T05:24:33.932Z,8.00
2022-09-14T05:25:36.066Z,6.90
2022-09-14T05:26:38.726Z,4.20
2022-09-14T05:27:40.692Z,6.90
2022-09-14T05:28:42.457Z,8.67
2022-09-14T05:29:44.386Z,9.78
2022-09-14T05:30:47.074Z,8.30
2022-09-14T05:31:49.048Z,7.90
2022-09-14T05:32:51.626Z,8.22
2022-09-14T05:33:54.876Z,6.60
2022-09-14T05:34:57.304Z,8.80
2022-09-14T05:36:05.346Z,8.50
2022-09-14T05:37:07.500Z,8.30
2022-09-14T05:38:09.507Z,5.40
2022-09-14T05:39:11.921Z,8.80
2022-09-14T05:40:15.341Z,6.50
2022-09-14T05:41:17.754Z,5.45
2022-09-14T05:42:19.774Z,6.50
2022-09-14T05:43:21.952Z,7.10
2022-09-14T05:44:25.250Z,7.80
2022-09-14T05:45:27.227Z,6.30
2022-09-14T05:46:29.160Z,6.60
2022-09-14T05:47:33.987Z,9.90
2022-09-14T05:48:38.201Z,8.10
2022-09-14T05:49:40.251Z,9.70
2022-09-14T05:50:42.562Z,7.80
2022-09-14T05:51:45.475Z,6.80
2022-09-14T05:52:47.459Z,7.10
2022-09-14T05:53:51.077Z,5.80
2022-09-14T05:54:53.163Z,8.40
2022-09-14T05:56:07.512Z,5.50
2022-09-14T05:57:10.381Z,8.80
2022-09-14T05:58:12.290Z,8.80
2022-09-14T05:59:14.265Z,7.67
2022-09-14T06:00:17.860Z,10.00
2022-09-14T06:01:23.505Z,6.70
2022-09-14T06:02:25.983Z,8.60
2022-09-14T06:03:28.517Z,7.60
2022-09-14T06:04:30.402Z,8.40
2022-09-14T06:05:32.338Z,6.33
2022-09-14T06:06:34.917Z,8.50
2022-09-14T06:07:37.891Z,8.50
2022-09-14T06:08:40.230Z,10.60
2022-09-14T06:09:42.216Z,7.30
2022-09-14T06:10:44.300Z,6.40
2022-09-14T06:11:46.346Z,6.00
2022-09-14T06:12:51.273Z,11.30
2022-09-14T06:13:54.237Z,6.60
2022-09-14T06:14:56.320Z,8.20
2022-09-14T06:16:05.950Z,7.50
2022-09-14T06:17:07.790Z,6.20
2022-09-14T06:18:10.315Z,8.56
2022-09-14T06:19:12.753Z,7.00
2022-09-14T06:20:15.351Z,10.18
2022-09-14T06:21:20.566Z,10.50
2022-09-14T06:22:23.116Z,7.70
2022-09-14T06:23:26.902Z,12.00
2022-09-14T06:24:29.001Z,10.80
2022-09-14T06:25:30.974Z,9.80
2022-09-14T06:26:32.887Z,8.40
2022-09-14T06:27:35.149Z,10.33
2022-09-14T06:28:37.877Z,9.20
2022-09-14T06:29:40.793Z,7.82
2022-09-14T06:30:43.740Z,9.40
2022-09-14T06:31:45.629Z,7.73
2022-09-14T06:32:47.988Z,9.22
2022-09-14T06:33:50.378Z,8.30
2022-09-14T06:34:52.503Z,6.30
2022-09-14T06:36:00.404Z,6.50
2022-09-14T06:37:02.457Z,10.20
2022-09-14T06:38:04.931Z,9.60
2022-09-14T06:39:07.145Z,7.40
2022-09-14T06:40:11.052Z,8.30
2022-09-14T06:41:15.030Z,6.40
2022-09-14T06:42:17.196Z,7.50
2022-09-14T06:43:19.701Z,7.90
2022-09-14T06:44:21.627Z,7.00
2022-09-14T06:45:23.580Z,7.33
2022-09-14T06:46:28.958Z,7.60
2022-09-14T06:47:32.528Z,8.40
2022-09-14T06:48:37.951Z,8.30
2022-09-14T06:49:39.993Z,9.20
2022-09-14T06:50:43.005Z,8.20
2022-09-14T06:51:46.068Z,6.50
2022-09-14T06:52:49.061Z,7.90
2022-09-14T06:53:52.829Z,8.40
2022-09-14T06:54:54.734Z,7.60
2022-09-14T06:55:58.654Z,7.33
2022-09-14T06:57:01.121Z,8.10
2022-09-14T06:58:02.907Z,5.70
2022-09-14T06:59:07.324Z,10.00
2022-09-14T07:00:11.202Z,10.60
2022-09-14T07:01:16.882Z,14.60
2022-09-14T07:02:19.188Z,7.70
2022-09-14T07:03:21.146Z,10.70
2022-09-14T07:04:23.921Z,12.67
2022-09-14T07:05:27.902Z,13.09
2022-09-14T07:06:33.049Z,10.60
2022-09-14T07:07:34.967Z,8.20
2022-09-14T07:08:39.296Z,11.11
2022-09-14T07:09:43.498Z,6.70
2022-09-14T07:10:49.177Z,6.60
2022-09-14T07:11:51.029Z,9.20
2022-09-14T07:12:53.752Z,7.78
2022-09-14T07:13:56.012Z,8.64
2022-09-14T07:14:57.895Z,9.30
2022-09-14T07:15:59.943Z,7.44
2022-09-14T07:17:01.948Z,5.40
2022-09-14T07:18:03.961Z,6.70
2022-09-14T07:19:08.978Z,7.20
2022-09-14T07:20:11.824Z,7.90
2022-09-14T07:21:17.299Z,5.80
2022-09-14T07:22:19.230Z,7.60
2022-09-14T07:23:21.333Z,3.70
2022-09-14T07:24:23.828Z,5.50
2022-09-14T07:25:26.855Z,6.70
2022-09-14T07:26:32.255Z,7.20
2022-09-14T07:27:34.344Z,8.40
2022-09-14T07:28:37.825Z,7.50
2022-09-14T07:29:40.363Z,8.20
2022-09-14T07:30:42.960Z,7.45
2022-09-14T07:31:52.081Z,5.80
2022-09-14T07:32:54.727Z,6.20
2022-09-14T07:34:00.119Z,7.20
2022-09-14T07:35:02.265Z,5.40
2022-09-14T07:36:09.829Z,5.80
2022-09-14T07:37:11.776Z,6.90
2022-09-14T07:38:13.789Z,3.90
2022-09-14T07:39:17.632Z,6.00
2022-09-14T07:40:20.210Z,8.30
2022-09-14T07:41:25.461Z,7.10
2022-09-14T07:42:27.988Z,7.60
2022-09-14T07:43:30.274Z,7.50
2022-09-14T07:44:32.290Z,6.80
2022-09-14T07:45:36.427Z,7.80
2022-09-14T07:46:41.253Z,7.00
2022-09-14T07:47:44.050Z,7.80
2022-09-14T07:48:47.197Z,7.73
2022-09-14T07:49:49.135Z,7.20
2022-09-14T07:51:10.741Z,8.00
2022-09-14T07:52:13.880Z,5.60
2022-09-14T07:53:16.282Z,5.40
2022-09-14T07:54:18.674Z,8.60
2022-09-14T07:55:20.605Z,6.70
2022-09-14T07:56:23.731Z,8.00
2022-09-14T07:57:45.406Z,7.36
2022-09-14T07:58:30.633Z,6.00
2022-09-14T07:59:37.358Z,6.00
2022-09-14T08:00:37.094Z,5.00
2022-09-14T08:01:40.037Z,7.22
2022-09-14T08:02:41.919Z,6.60
2022-09-14T08:03:46.660Z,8.10
2022-09-14T08:04:48.450Z,5.09
2022-09-14T08:06:02.679Z,5.22
2022-09-14T08:07:05.236Z,5.40
2022-09-14T08:08:06.978Z,6.70
2022-09-14T08:09:08.818Z,8.33
2022-09-14T08:10:12.135Z,5.60
2022-09-14T08:11:17.091Z,6.73
2022-09-14T08:12:19.888Z,6.10
2022-09-14T08:13:21.670Z,5.82
2022-09-14T08:14:24.562Z,6.11
2022-09-14T08:15:28.670Z,6.09
2022-09-14T08:16:33.051Z,7.00
2022-09-14T08:17:35.451Z,7.70
2022-09-14T08:18:38.231Z,6.50
2022-09-14T08:19:40.477Z,6.50
2022-09-14T08:20:42.738Z,9.30
2022-09-14T08:21:47.147Z,6.90
2022-09-14T08:22:48.562Z,4.60
2022-09-14T08:23:50.669Z,8.00
2022-09-14T08:24:52.273Z,7.90
2022-09-14T08:25:54.596Z,6.56
2022-09-14T08:26:56.904Z,8.30
2022-09-14T08:27:58.968Z,8.30
2022-09-14T08:29:00.613Z,7.40
2022-09-14T08:30:04.351Z,6.56
2022-09-14T08:31:08.455Z,6.60
2022-09-14T08:32:12.486Z,1.90
2022-09-14T08:33:15.311Z,8.50
2022-09-14T08:34:17.645Z,5.91
2022-09-14T08:35:27.217Z,7.90
2022-09-14T08:36:26.137Z,7.80
2022-09-14T08:37:28.337Z,6.80
2022-09-14T08:38:31.673Z,6.00
2022-09-14T08:39:33.849Z,5.30
2022-09-14T08:40:45.151Z,2.90
2022-09-14T08:41:55.721Z,6.60
2022-09-14T08:43:00.308Z,7.30
2022-09-14T08:44:23.470Z,7.30
2022-09-14T08:45:26.534Z,8.80
2022-09-14T08:46:38.413Z,6.00
2022-09-14T08:47:40.620Z,7.60
2022-09-14T08:48:46.000Z,7.90
2022-09-14T08:50:08.159Z,7.80
2022-09-14T08:51:09.931Z,8.20
2022-09-14T08:52:42.057Z,9.44
2022-09-14T08:53:45.487Z,8.30
2022-09-14T08:54:50.979Z,9.20
2022-09-14T08:55:59.295Z,7.40
2022-09-14T08:57:20.064Z,10.70
2022-09-14T08:58:49.161Z,3.90
2022-09-14T09:00:15.914Z,7.90
2022-09-14T09:01:24.545Z,9.80
2022-09-14T09:03:03.603Z,7.90
2022-09-14T09:04:17.497Z,6.00
2022-09-14T09:05:33.354Z,11.50
2022-09-14T09:06:59.917Z,9.00
2022-09-14T09:08:26.590Z,4.60
2022-09-14T09:09:49.511Z,8.40
2022-09-14T09:10:54.224Z,6.10
2022-09-14T09:11:57.303Z,8.00
2022-09-14T09:13:02.615Z,8.40
2022-09-14T09:14:18.302Z,7.40
2022-09-14T09:15:27.904Z,9.00
2022-09-14T09:16:30.749Z,7.90
2022-09-14T09:17:42.938Z,7.60
2022-09-14T09:19:01.154Z,7.10
2022-09-14T09:20:12.473Z,7.20
2022-09-14T09:21:36.960Z,4.80
2022-09-14T09:22:50.213Z,6.00
2022-09-14T09:24:13.215Z,5.60
2022-09-14T09:25:21.554Z,6.70
2022-09-14T09:26:32.113Z,4.20
2022-09-14T09:27:35.030Z,5.00
2022-09-14T09:28:49.278Z,6.09
2022-09-14T09:29:51.803Z,6.60
2022-09-14T09:31:05.271Z,4.70
2022-09-14T09:32:18.427Z,5.10
2022-09-14T09:33:39.641Z,3.00
2022-09-14T09:34:52.750Z,4.70
2022-09-14T09:36:02.782Z,6.60
2022-09-14T09:37:09.582Z,4.60
2022-09-14T09:38:17.457Z,4.90
2022-09-14T09:39:19.594Z,5.00
2022-09-14T09:40:37.087Z,5.80
2022-09-14T09:41:57.465Z,3.60
2022-09-14T09:43:12.138Z,4.30
2022-09-14T09:44:15.604Z,5.80
2022-09-14T09:45:17.663Z,5.70
2022-09-14T09:46:21.863Z,4.00
2022-09-14T09:47:33.301Z,4.60
2022-09-14T09:48:41.954Z,4.60
2022-09-14T09:49:48.746Z,4.80
2022-09-14T09:51:03.957Z,5.40
2022-09-14T09:52:09.977Z,6.10
2022-09-14T09:53:15.514Z,6.70
2022-09-14T09:54:30.593Z,2.80
2022-09-14T09:55:38.702Z,3.50
2022-09-14T09:57:06.154Z,5.00
2022-09-14T09:58:28.789Z,3.50
2022-09-14T09:59:37.119Z,4.70
2022-09-14T10:00:39.595Z,7.40
2022-09-14T10:01:42.352Z,5.00
2022-09-14T10:02:44.768Z,5.00
2022-09-14T10:04:05.289Z,5.30
2022-09-14T10:05:23.278Z,7.10
2022-09-14T10:06:26.145Z,5.10
2022-09-14T10:07:30.936Z,5.20
2022-09-14T10:08:35.436Z,5.40
2022-09-14T10:09:38.486Z,4.60
2022-09-14T10:10:43.279Z,5.70
2022-09-14T10:11:48.434Z,5.90
2022-09-14T10:12:55.734Z,6.10
2022-09-14T10:13:58.251Z,4.70
2022-09-14T10:16:21.478Z,6.20
2022-09-14T10:17:23.570Z,4.20
2022-09-14T10:18:27.793Z,5.50
2022-09-14T10:19:30.153Z,6.50
2022-09-14T10:20:32.961Z,5.70
2022-09-14T10:21:34.991Z,5.30
2022-09-14T10:22:40.373Z,3.80
2022-09-14T10:23:44.077Z,5.40
2022-09-14T10:24:55.059Z,6.30
2022-09-14T10:26:16.161Z,4.70
2022-09-14T10:27:37.837Z,4.80
2022-09-14T10:28:46.517Z,7.30
2022-09-14T10:29:53.169Z,5.40
2022-09-14T10:31:18.321Z,7.20
2022-09-14T10:32:23.381Z,5.70
2022-09-14T10:33:25.637Z,6.80
2022-09-14T10:34:28.457Z,8.00
2022-09-14T10:35:48.656Z,8.70
2022-09-14T10:36:54.331Z,8.10
2022-09-14T10:38:12.277Z,9.30
2022-09-14T10:39:17.851Z,6.60
2022-09-14T10:40:25.004Z,8.50
2022-09-14T10:42:05.929Z,8.80
2022-09-14T10:43:27.605Z,8.60
2022-09-14T10:44:36.224Z,8.00
2022-09-14T10:45:49.698Z,10.90
2022-09-14T10:47:21.232Z,5.20
2022-09-14T10:48:53.086Z,9.70
2022-09-14T10:50:18.179Z,8.40
2022-09-14T10:51:23.799Z,9.70
2022-09-14T10:52:41.948Z,10.00
2022-09-14T10:53:50.747Z,10.70
2022-09-14T10:55:15.048Z,11.90
2022-09-14T10:56:28.430Z,9.60
2022-09-14T10:57:36.532Z,11.00
2022-09-14T10:58:59.031Z,12.80
2022-09-14T11:00:04.753Z,12.30
2022-09-14T11:01:14.448Z,20.30
2022-09-14T11:02:23.688Z,22.30
2022-09-14T11:03:35.668Z,21.20
2022-09-14T11:04:56.866Z,36.20
2022-09-14T11:06:17.309Z,33.20
2022-09-14T11:07:25.737Z,30.30
2022-09-14T11:08:34.348Z,24.00
2022-09-14T11:09:53.135Z,20.20
2022-09-14T11:11:14.148Z,24.10
2022-09-14T11:12:45.161Z,16.40
2022-09-14T11:13:51.068Z,20.30
2022-09-14T11:14:56.772Z,14.50
2022-09-14T11:16:15.132Z,14.10
2022-09-14T11:17:43.598Z,11.80
2022-09-14T11:19:04.116Z,8.30
2022-09-14T11:20:28.155Z,8.10
2022-09-14T11:21:48.934Z,10.00
2022-09-14T11:23:01.069Z,8.90
2022-09-14T11:24:15.465Z,8.90
2022-09-14T11:25:33.316Z,8.90
2022-09-14T11:26:42.637Z,7.10
2022-09-14T11:28:01.360Z,8.40
2022-09-14T11:29:19.079Z,9.00
2022-09-14T11:30:25.234Z,9.10
2022-09-14T11:31:43.054Z,8.30
2022-09-14T11:33:01.908Z,9.90
2022-09-14T11:34:17.047Z,5.80
2022-09-14T11:35:22.686Z,6.30
2022-09-14T11:36:35.080Z,8.70
2022-09-14T11:37:40.682Z,10.60
2022-09-14T11:38:58.089Z,9.30
2022-09-14T11:40:06.478Z,6.90
2022-09-14T11:41:33.767Z,6.80
2022-09-14T11:43:04.859Z,6.90
2022-09-14T11:44:13.424Z,4.60
2022-09-14T11:45:37.449Z,8.70
2022-09-14T11:46:46.327Z,7.60
2022-09-14T11:47:59.504Z,6.60
2022-09-14T11:49:24.715Z,8.30
2022-09-14T11:50:30.541Z,7.70
2022-09-14T11:51:44.986Z,8.40
2022-09-14T11:52:50.777Z,7.50
2022-09-14T11:53:53.080Z,8.00
2022-09-14T11:54:56.629Z,6.50
2022-09-14T11:55:59.682Z,7.60
2022-09-14T11:57:03.903Z,7.80
2022-09-14T11:58:08.585Z,8.10
2022-09-14T11:59:14.759Z,10.00
2022-09-14T12:00:30.263Z,9.90
2022-09-14T12:01:36.846Z,10.80
2022-09-14T12:02:42.586Z,6.20
2022-09-14T12:03:54.776Z,8.90
2022-09-14T12:05:09.576Z,10.50
2022-09-14T12:06:35.679Z,7.80
2022-09-14T12:07:44.881Z,10.40
2022-09-14T12:08:48.003Z,11.10
2022-09-14T12:09:50.635Z,6.70
2022-09-14T12:11:12.051Z,8.64
2022-09-14T12:12:32.528Z,7.80
2022-09-14T12:13:36.170Z,8.40
2022-09-14T12:14:40.230Z,8.20
2022-09-14T12:15:42.640Z,6.40
2022-09-14T12:17:35.326Z,8.18
2022-09-14T12:18:19.211Z,8.60
2022-09-14T12:19:23.014Z,8.00
2022-09-14T12:20:32.425Z,9.20
2022-09-14T12:21:34.560Z,7.70
2022-09-14T12:22:39.893Z,8.70
2022-09-14T12:23:44.972Z,9.40
2022-09-14T12:24:51.073Z,9.40
2022-09-14T12:26:21.925Z,9.10
2022-09-14T12:27:24.354Z,9.40
2022-09-14T12:28:38.858Z,9.80
2022-09-14T12:29:40.941Z,10.70
2022-09-14T12:30:46.884Z,7.60
2022-09-14T12:31:55.643Z,9.80
2022-09-14T12:32:57.740Z,10.00
2022-09-14T12:34:22.844Z,8.30
2022-09-14T12:35:38.622Z,9.70
2022-09-14T12:36:44.288Z,10.30
2022-09-14T12:37:46.233Z,9.70
2022-09-14T12:38:54.891Z,8.80
2022-09-14T12:40:21.778Z,10.40
2022-09-14T12:41:27.841Z,7.90
2022-09-14T12:42:30.224Z,10.90
2022-09-14T12:43:36.250Z,9.50
2022-09-14T12:44:43.230Z,9.90
2022-09-14T12:45:51.765Z,11.40
2022-09-14T12:46:56.418Z,8.70
2022-09-14T12:47:58.977Z,9.70
2022-09-14T12:49:04.974Z,9.00
2022-09-14T12:51:30.672Z,14.60
2022-09-14T12:52:55.167Z,11.10
2022-09-14T12:54:10.139Z,11.80
2022-09-14T12:55:37.346Z,7.60
2022-09-14T12:56:59.799Z,13.50
2022-09-14T12:58:08.921Z,13.30
2022-09-14T12:59:26.049Z,12.00
2022-09-14T13:00:31.284Z,15.20
2022-09-14T13:01:37.000Z,10.00
2022-09-14T13:03:02.704Z,9.40
2022-09-14T13:04:09.353Z,13.50
2022-09-14T13:05:17.576Z,8.50
2022-09-14T13:06:22.291Z,10.50
2022-09-14T13:07:27.935Z,8.40
2022-09-14T13:08:31.866Z,13.90
2022-09-14T13:09:34.710Z,13.30
2022-09-14T13:10:46.062Z,12.60
2022-09-14T13:11:54.740Z,12.30
2022-09-14T13:12:59.118Z,10.20
2022-09-14T13:14:03.288Z,13.20
2022-09-14T13:15:20.492Z,13.20
2022-09-14T13:16:38.737Z,13.10
2022-09-14T13:19:11.282Z,15.80
2022-09-14T13:20:17.532Z,15.80
2022-09-14T13:21:22.683Z,13.40
2022-09-14T13:22:29.243Z,15.10
2022-09-14T13:23:41.012Z,17.30
2022-09-14T13:24:45.104Z,15.30
2022-09-14T13:25:48.285Z,15.90
2022-09-14T13:26:51.637Z,14.80
2022-09-14T13:27:54.771Z,16.20
2022-09-14T13:28:59.507Z,14.10
2022-09-14T13:30:08.570Z,13.80
2022-09-14T13:31:14.260Z,13.70
2022-09-14T13:32:21.902Z,15.40
2022-09-14T13:33:24.882Z,13.90
2022-09-14T13:34:33.186Z,16.09
2022-09-14T13:35:46.009Z,17.00
2022-09-14T13:36:48.990Z,16.70
2022-09-14T13:37:51.309Z,14.91
2022-09-14T13:38:55.460Z,18.10
2022-09-14T13:39:58.988Z,15.50
2022-09-14T13:41:08.585Z,16.40
2022-09-14T13:42:11.068Z,16.30
2022-09-14T13:43:16.807Z,19.00
2022-09-14T13:44:22.922Z,16.50
2022-09-14T13:45:26.573Z,14.80
2022-09-14T13:46:29.479Z,15.80
2022-09-14T13:47:31.730Z,17.10
2022-09-14T13:48:36.913Z,16.90
2022-09-14T13:49:41.773Z,17.60
2022-09-14T13:50:47.665Z,17.60
2022-09-14T13:51:50.330Z,17.60
2022-09-14T13:53:02.578Z,14.70
2022-09-14T13:54:18.118Z,14.90
2022-09-14T13:55:28.495Z,15.00
2022-09-14T13:56:33.548Z,17.20
2022-09-14T13:57:36.156Z,20.20
2022-09-14T13:58:38.126Z,15.70
2022-09-14T14:00:17.030Z,19.44
2022-09-14T14:01:25.057Z,16.80
2022-09-14T14:02:27.970Z,17.30
2022-09-14T14:03:34.193Z,16.10
2022-09-14T14:04:39.123Z,17.50
2022-09-14T14:05:41.569Z,19.50
2022-09-14T14:06:44.064Z,17.10
2022-09-14T14:07:46.564Z,17.70
2022-09-14T14:09:05.316Z,21.10
2022-09-14T14:10:11.388Z,17.20
2022-09-14T14:11:13.494Z,19.80
2022-09-14T14:12:35.668Z,24.30
2022-09-14T14:13:38.472Z,18.20
2022-09-14T14:14:40.431Z,17.82
2022-09-14T14:15:42.858Z,18.80
2022-09-14T14:17:15.703Z,22.90
2022-09-14T14:18:42.603Z,23.70
2022-09-14T14:19:45.057Z,19.30
2022-09-14T14:20:48.373Z,22.00
2022-09-14T14:21:50.411Z,21.90
2022-09-14T14:23:11.317Z,20.30
2022-09-14T14:24:27.650Z,19.00
2022-09-14T14:25:36.276Z,19.30
2022-09-14T14:26:39.150Z,19.40
2022-09-14T14:27:47.204Z,22.27
2022-09-14T14:28:49.353Z,21.20
2022-09-14T14:29:52.300Z,20.20
2022-09-14T14:30:57.384Z,17.50
2022-09-14T14:31:59.349Z,25.30
2022-09-14T14:33:03.927Z,19.50
2022-09-14T14:34:19.176Z,19.80
2022-09-14T14:35:23.738Z,18.50
2022-09-14T14:36:27.290Z,16.20
2022-09-14T14:37:30.110Z,23.50
2022-09-14T14:38:32.334Z,18.80
2022-09-14T14:39:34.145Z,21.30
2022-09-14T14:40:37.304Z,22.90
2022-09-14T14:41:39.570Z,22.40
2022-09-14T14:42:42.167Z,20.20
2022-09-14T14:43:45.574Z,21.30
2022-09-14T14:44:47.604Z,17.40
2022-09-14T14:45:55.630Z,21.90
2022-09-14T14:46:58.008Z,17.20